sensor_id;sensor_type;location;lat;lon;timestamp;temperature;humidity
23079;DHT22;11707;50.830;4.364;2024-03-23T00:53:52;8.40;99.90
23079;DHT22;11707;50.830;4.364;2024-03-23T00:56:17;8.30;99.90
23079;DHT22;11707;50.830;4.364;2024-03-23T00:58:43;8.30;99.90
23079;DHT22;11707;50.830;4.364;2024-03-23T01:01:09;8.30;99.90
23079;DHT22;11707;50.830;4.364;2024-03-23T01:03:34;8.40;99.90
23079;DHT22;11707;50.830;4.364;2024-03-23T01:06:01;8.50;99.90
23079;DHT22;11707;50.830;4.364;2024-03-23T01:08:27;8.50;99.90
23079;DHT22;11707;50.830;4.364;2024-03-23T01:10:56;8.60;99.90
23079;DHT22;11707;50.830;4.364;2024-03-23T01:13:23;8.50;99.90
23079;DHT22;11707;50.830;4.364;2024-03-23T01:15:53;8.60;99.90
23079;DHT22;11707;50.830;4.364;2024-03-23T01:18:20;8.60;99.90
23079;DHT22;11707;50.830;4.364;2024-03-23T01:20:46;8.50;99.90
23079;DHT22;11707;50.830;4.364;2024-03-23T01:23:12;8.60;99.90
23079;DHT22;11707;50.830;4.364;2024-03-23T01:25:38;8.60;99.90
23079;DHT22;11707;50.830;4.364;2024-03-23T01:28:04;8.60;99.90
23079;DHT22;11707;50.830;4.364;2024-03-23T01:30:32;8.60;99.90
23079;DHT22;11707;50.830;4.364;2024-03-23T01:32:57;8.60;99.90
23079;DHT22;11707;50.830;4.364;2024-03-23T01:35:23;8.50;99.90
23079;DHT22;11707;50.830;4.364;2024-03-23T01:37:49;8.60;99.90
23079;DHT22;11707;50.830;4.364;2024-03-23T01:40:17;8.50;99.90
23079;DHT22;11707;50.830;4.364;2024-03-23T01:42:55;8.40;99.90
23079;DHT22;11707;50.830;4.364;2024-03-23T01:45:21;8.50;99.90
23079;DHT22;11707;50.830;4.364;2024-03-23T01:47:52;8.50;99.90
23079;DHT22;11707;50.830;4.364;2024-03-23T01:50:21;8.60;99.90
23079;DHT22;11707;50.830;4.364;2024-03-23T01:52:49;8.70;99.90
23079;DHT22;11707;50.830;4.364;2024-03-23T01:55:15;8.60;99.90
23079;DHT22;11707;50.830;4.364;2024-03-23T01:57:43;8.60;99.90
23079;DHT22;11707;50.830;4.364;2024-03-23T02:00:09;8.70;99.90
23079;DHT22;11707;50.830;4.364;2024-03-23T02:02:44;8.70;99.90
23079;DHT22;11707;50.830;4.364;2024-03-23T02:05:14;8.70;99.90
23079;DHT22;11707;50.830;4.364;2024-03-23T02:07:41;8.80;99.90
23079;DHT22;11707;50.830;4.364;2024-03-23T02:10:10;8.90;99.90
23079;DHT22;11707;50.830;4.364;2024-03-23T02:12:38;8.90;99.90
23079;DHT22;11707;50.830;4.364;2024-03-23T02:15:04;8.90;99.90
23079;DHT22;11707;50.830;4.364;2024-03-23T02:17:31;8.90;99.90
23079;DHT22;11707;50.830;4.364;2024-03-23T02:19:59;8.90;99.90
23079;DHT22;11707;50.830;4.364;2024-03-23T02:22:35;8.80;99.90
23079;DHT22;11707;50.830;4.364;2024-03-23T02:25:01;8.70;99.90
23079;DHT22;11707;50.830;4.364;2024-03-23T02:27:28;8.50;99.90
23079;DHT22;11707;50.830;4.364;2024-03-23T02:29:56;8.40;99.90
23079;DHT22;11707;50.830;4.364;2024-03-23T02:32:22;8.30;99.90
23079;DHT22;11707;50.830;4.364;2024-03-23T02:34:47;8.20;99.90
23079;DHT22;11707;50.830;4.364;2024-03-23T02:37:15;8.10;99.90
23079;DHT22;11707;50.830;4.364;2024-03-23T02:39:41;8.20;99.90
23079;DHT22;11707;50.830;4.364;2024-03-23T02:42:07;8.20;99.90
23079;DHT22;11707;50.830;4.364;2024-03-23T02:44:32;8.10;99.90
23079;DHT22;11707;50.830;4.364;2024-03-23T02:47:00;8.10;99.90
23079;DHT22;11707;50.830;4.364;2024-03-23T02:49:26;8.10;99.90
23079;DHT22;11707;50.830;4.364;2024-03-23T02:51:52;8.20;99.90
23079;DHT22;11707;50.830;4.364;2024-03-23T02:54:18;8.20;99.90
23079;DHT22;11707;50.830;4.364;2024-03-23T02:56:43;8.30;99.90
23079;DHT22;11707;50.830;4.364;2024-03-23T02:59:15;8.40;99.90
23079;DHT22;11707;50.830;4.364;2024-03-23T03:01:43;8.40;99.90
23079;DHT22;11707;50.830;4.364;2024-03-23T03:04:08;8.40;99.90
23079;DHT22;11707;50.830;4.364;2024-03-23T03:06:36;8.40;99.90
23079;DHT22;11707;50.830;4.364;2024-03-23T03:09:02;8.30;99.90
23079;DHT22;11707;50.830;4.364;2024-03-23T03:11:28;8.40;99.90
23079;DHT22;11707;50.830;4.364;2024-03-23T03:13:56;8.30;99.90
23079;DHT22;11707;50.830;4.364;2024-03-23T03:16:22;8.30;99.90
23079;DHT22;11707;50.830;4.364;2024-03-23T03:18:48;8.30;99.90
23079;DHT22;11707;50.830;4.364;2024-03-23T03:21:13;8.30;99.90
23079;DHT22;11707;50.830;4.364;2024-03-23T03:23:41;8.20;99.90
23079;DHT22;11707;50.830;4.364;2024-03-23T03:26:08;8.30;99.90
23079;DHT22;11707;50.830;4.364;2024-03-23T03:28:34;8.30;99.90
23079;DHT22;11707;50.830;4.364;2024-03-23T03:31:00;8.40;99.90
23079;DHT22;11707;50.830;4.364;2024-03-23T03:33:29;8.40;99.90
23079;DHT22;11707;50.830;4.364;2024-03-23T03:35:55;8.40;99.90
23079;DHT22;11707;50.830;4.364;2024-03-23T03:38:21;8.40;99.90
23079;DHT22;11707;50.830;4.364;2024-03-23T03:40:46;8.40;99.90
23079;DHT22;11707;50.830;4.364;2024-03-23T03:43:12;8.40;99.90
23079;DHT22;11707;50.830;4.364;2024-03-23T03:45:38;8.50;99.90
23079;DHT22;11707;50.830;4.364;2024-03-23T03:48:04;8.50;99.90
23079;DHT22;11707;50.830;4.364;2024-03-23T03:50:30;8.40;99.90
23079;DHT22;11707;50.830;4.364;2024-03-23T03:52:56;8.30;99.90
23079;DHT22;11707;50.830;4.364;2024-03-23T03:55:21;8.30;99.90
23079;DHT22;11707;50.830;4.364;2024-03-23T03:57:47;8.30;99.90
23079;DHT22;11707;50.830;4.364;2024-03-23T04:00:13;8.20;99.90
23079;DHT22;11707;50.830;4.364;2024-03-23T04:02:41;8.20;99.90
23079;DHT22;11707;50.830;4.364;2024-03-23T04:05:07;8.20;99.90
23079;DHT22;11707;50.830;4.364;2024-03-23T04:07:33;8.20;99.90
23079;DHT22;11707;50.830;4.364;2024-03-23T04:09:59;8.10;99.90
23079;DHT22;11707;50.830;4.364;2024-03-23T04:12:28;8.00;99.90
23079;DHT22;11707;50.830;4.364;2024-03-23T04:14:53;8.00;99.90
23079;DHT22;11707;50.830;4.364;2024-03-23T04:17:19;7.90;99.90
23079;DHT22;11707;50.830;4.364;2024-03-23T04:19:45;7.90;99.90
23079;DHT22;11707;50.830;4.364;2024-03-23T04:22:11;7.90;99.90
23079;DHT22;11707;50.830;4.364;2024-03-23T04:24:39;7.90;99.90
23079;DHT22;11707;50.830;4.364;2024-03-23T04:27:05;7.80;99.90
23079;DHT22;11707;50.830;4.364;2024-03-23T04:29:30;7.80;99.90
23079;DHT22;11707;50.830;4.364;2024-03-23T04:31:56;7.80;99.90
23079;DHT22;11707;50.830;4.364;2024-03-23T04:34:22;7.90;99.90
23079;DHT22;11707;50.830;4.364;2024-03-23T04:36:48;7.90;99.90
23079;DHT22;11707;50.830;4.364;2024-03-23T04:39:16;7.90;99.90
23079;DHT22;11707;50.830;4.364;2024-03-23T04:41:42;7.90;99.90
23079;DHT22;11707;50.830;4.364;2024-03-23T04:44:10;7.90;99.90
23079;DHT22;11707;50.830;4.364;2024-03-23T04:46:36;7.80;99.90
23079;DHT22;11707;50.830;4.364;2024-03-23T04:49:01;7.80;99.90
23079;DHT22;11707;50.830;4.364;2024-03-23T04:51:35;7.70;99.90
23079;DHT22;11707;50.830;4.364;2024-03-23T04:54:03;7.70;99.90
23079;DHT22;11707;50.830;4.364;2024-03-23T04:56:29;7.70;99.90
23079;DHT22;11707;50.830;4.364;2024-03-23T04:58:56;7.60;99.90
23079;DHT22;11707;50.830;4.364;2024-03-23T05:01:28;7.60;99.90
23079;DHT22;11707;50.830;4.364;2024-03-23T05:03:54;7.60;99.90
23079;DHT22;11707;50.830;4.364;2024-03-23T05:06:20;7.50;99.90
23079;DHT22;11707;50.830;4.364;2024-03-23T05:08:48;7.50;99.90
23079;DHT22;11707;50.830;4.364;2024-03-23T05:11:13;7.50;99.90
23079;DHT22;11707;50.830;4.364;2024-03-23T05:13:39;7.50;99.90
23079;DHT22;11707;50.830;4.364;2024-03-23T05:16:05;7.60;99.90
23079;DHT22;11707;50.830;4.364;2024-03-23T05:18:31;7.60;99.90
23079;DHT22;11707;50.830;4.364;2024-03-23T05:20:57;7.60;99.90
23079;DHT22;11707;50.830;4.364;2024-03-23T05:23:26;7.60;99.90
23079;DHT22;11707;50.830;4.364;2024-03-23T05:25:54;7.60;99.90
23079;DHT22;11707;50.830;4.364;2024-03-23T05:28:22;7.60;99.90
23079;DHT22;11707;50.830;4.364;2024-03-23T05:30:52;7.50;99.90
23079;DHT22;11707;50.830;4.364;2024-03-23T05:33:19;7.50;99.90
23079;DHT22;11707;50.830;4.364;2024-03-23T05:35:55;7.50;99.90
23079;DHT22;11707;50.830;4.364;2024-03-23T05:38:21;7.60;99.90
23079;DHT22;11707;50.830;4.364;2024-03-23T05:40:57;7.60;99.90
23079;DHT22;11707;50.830;4.364;2024-03-23T05:43:23;7.60;99.90
23079;DHT22;11707;50.830;4.364;2024-03-23T05:45:59;7.50;99.90
23079;DHT22;11707;50.830;4.364;2024-03-23T05:48:25;7.50;99.90
23079;DHT22;11707;50.830;4.364;2024-03-23T05:50:51;7.50;99.90
23079;DHT22;11707;50.830;4.364;2024-03-23T05:53:18;7.40;99.90
23079;DHT22;11707;50.830;4.364;2024-03-23T05:55:44;7.40;99.90
23079;DHT22;11707;50.830;4.364;2024-03-23T05:58:11;7.40;99.90
23079;DHT22;11707;50.830;4.364;2024-03-23T06:00:37;7.40;99.90
23079;DHT22;11707;50.830;4.364;2024-03-23T06:03:02;7.40;99.90
23079;DHT22;11707;50.830;4.364;2024-03-23T06:05:28;7.40;99.90
23079;DHT22;11707;50.830;4.364;2024-03-23T06:07:56;7.40;99.90
23079;DHT22;11707;50.830;4.364;2024-03-23T06:10:23;7.40;99.90
23079;DHT22;11707;50.830;4.364;2024-03-23T06:12:48;7.40;99.90
23079;DHT22;11707;50.830;4.364;2024-03-23T06:15:18;7.40;99.90
23079;DHT22;11707;50.830;4.364;2024-03-23T06:17:44;7.40;99.90
23079;DHT22;11707;50.830;4.364;2024-03-23T06:20:09;7.40;99.80
23079;DHT22;11707;50.830;4.364;2024-03-23T06:22:36;7.40;99.90
23079;DHT22;11707;50.830;4.364;2024-03-23T06:25:02;7.40;99.90
23079;DHT22;11707;50.830;4.364;2024-03-23T06:27:28;7.40;99.90
23079;DHT22;11707;50.830;4.364;2024-03-23T06:29:53;7.40;99.90
23079;DHT22;11707;50.830;4.364;2024-03-23T06:32:20;7.30;99.90
23079;DHT22;11707;50.830;4.364;2024-03-23T06:34:46;7.30;99.90
23079;DHT22;11707;50.830;4.364;2024-03-23T06:37:12;7.30;99.90
23079;DHT22;11707;50.830;4.364;2024-03-23T06:39:40;7.30;99.90
23079;DHT22;11707;50.830;4.364;2024-03-23T06:42:06;7.40;99.90
23079;DHT22;11707;50.830;4.364;2024-03-23T06:44:33;7.40;99.90
23079;DHT22;11707;50.830;4.364;2024-03-23T06:46:59;7.50;99.90
23079;DHT22;11707;50.830;4.364;2024-03-23T06:49:24;7.50;99.90
23079;DHT22;11707;50.830;4.364;2024-03-23T06:51:52;7.50;99.90
23079;DHT22;11707;50.830;4.364;2024-03-23T06:54:21;7.50;99.90
23079;DHT22;11707;50.830;4.364;2024-03-23T06:56:49;7.50;99.90
23079;DHT22;11707;50.830;4.364;2024-03-23T06:59:15;7.40;99.90
23079;DHT22;11707;50.830;4.364;2024-03-23T07:01:43;7.40;99.80
23079;DHT22;11707;50.830;4.364;2024-03-23T07:04:09;7.30;99.50
23079;DHT22;11707;50.830;4.364;2024-03-23T07:06:42;7.20;99.20
23079;DHT22;11707;50.830;4.364;2024-03-23T07:09:08;7.10;99.90
23079;DHT22;11707;50.830;4.364;2024-03-23T07:11:34;7.00;99.90
23079;DHT22;11707;50.830;4.364;2024-03-23T07:13:59;6.70;99.90
23079;DHT22;11707;50.830;4.364;2024-03-23T07:16:26;6.40;99.90
23079;DHT22;11707;50.830;4.364;2024-03-23T07:18:54;6.40;99.90
23079;DHT22;11707;50.830;4.364;2024-03-23T07:21:21;6.40;99.90
23079;DHT22;11707;50.830;4.364;2024-03-23T07:23:47;6.50;99.90
23079;DHT22;11707;50.830;4.364;2024-03-23T07:26:13;6.50;99.90
23079;DHT22;11707;50.830;4.364;2024-03-23T07:28:39;6.50;99.90
23079;DHT22;11707;50.830;4.364;2024-03-23T07:31:10;6.60;99.90
23079;DHT22;11707;50.830;4.364;2024-03-23T07:33:41;6.60;99.90
23079;DHT22;11707;50.830;4.364;2024-03-23T07:36:07;6.70;99.90
23079;DHT22;11707;50.830;4.364;2024-03-23T07:38:33;6.80;99.90
23079;DHT22;11707;50.830;4.364;2024-03-23T07:41:11;6.80;99.90
23079;DHT22;11707;50.830;4.364;2024-03-23T07:43:39;6.80;99.90
23079;DHT22;11707;50.830;4.364;2024-03-23T07:46:08;6.80;99.90
23079;DHT22;11707;50.830;4.364;2024-03-23T07:48:34;6.90;99.90
23079;DHT22;11707;50.830;4.364;2024-03-23T07:53:44;7.10;99.90
23079;DHT22;11707;50.830;4.364;2024-03-23T07:56:14;7.30;99.90
23079;DHT22;11707;50.830;4.364;2024-03-23T07:58:47;7.40;99.90
23079;DHT22;11707;50.830;4.364;2024-03-23T08:01:15;7.40;99.90
23079;DHT22;11707;50.830;4.364;2024-03-23T08:03:45;7.50;99.90
23079;DHT22;11707;50.830;4.364;2024-03-23T08:06:11;7.50;99.90
23079;DHT22;11707;50.830;4.364;2024-03-23T08:08:38;7.60;99.90
23079;DHT22;11707;50.830;4.364;2024-03-23T08:11:04;7.60;99.90
23079;DHT22;11707;50.830;4.364;2024-03-23T08:13:30;7.60;99.90
23079;DHT22;11707;50.830;4.364;2024-03-23T08:15:57;7.60;99.90
23079;DHT22;11707;50.830;4.364;2024-03-23T08:18:22;7.50;98.90
23079;DHT22;11707;50.830;4.364;2024-03-23T08:21:02;7.50;99.90
23079;DHT22;11707;50.830;4.364;2024-03-23T08:23:32;7.50;99.90
23079;DHT22;11707;50.830;4.364;2024-03-23T08:26:11;7.50;99.90
23079;DHT22;11707;50.830;4.364;2024-03-23T08:28:39;7.60;99.70
23079;DHT22;11707;50.830;4.364;2024-03-23T08:31:08;7.60;98.70
23079;DHT22;11707;50.830;4.364;2024-03-23T08:33:35;7.50;98.90
23079;DHT22;11707;50.830;4.364;2024-03-23T08:36:02;7.60;98.10
23079;DHT22;11707;50.830;4.364;2024-03-23T08:38:31;7.60;98.10
23079;DHT22;11707;50.830;4.364;2024-03-23T08:43:24;7.60;98.80
23079;DHT22;11707;50.830;4.364;2024-03-23T08:45:53;7.50;90.80
23079;DHT22;11707;50.830;4.364;2024-03-23T08:48:24;7.40;92.80
23079;DHT22;11707;50.830;4.364;2024-03-23T08:51:05;7.50;94.50
23079;DHT22;11707;50.830;4.364;2024-03-23T08:53:32;7.60;93.00
23079;DHT22;11707;50.830;4.364;2024-03-23T08:55:58;7.70;73.30
23079;DHT22;11707;50.830;4.364;2024-03-23T08:58:25;7.60;63.80
23079;DHT22;11707;50.830;4.364;2024-03-23T09:00:55;7.50;67.50
23079;DHT22;11707;50.830;4.364;2024-03-23T09:03:22;7.50;75.40
23079;DHT22;11707;50.830;4.364;2024-03-23T09:05:51;7.70;77.90
23079;DHT22;11707;50.830;4.364;2024-03-23T09:08:19;7.90;57.60
23079;DHT22;11707;50.830;4.364;2024-03-23T09:10:45;8.00;52.10
23079;DHT22;11707;50.830;4.364;2024-03-23T09:13:11;7.90;46.30
23079;DHT22;11707;50.830;4.364;2024-03-23T09:15:45;7.90;54.40
23079;DHT22;11707;50.830;4.364;2024-03-23T09:18:11;8.00;51.60
23079;DHT22;11707;50.830;4.364;2024-03-23T09:20:36;7.80;40.70
23079;DHT22;11707;50.830;4.364;2024-03-23T09:23:02;7.80;46.70
23079;DHT22;11707;50.830;4.364;2024-03-23T09:25:28;7.80;51.60
23079;DHT22;11707;50.830;4.364;2024-03-23T09:27:53;7.90;52.70
23079;DHT22;11707;50.830;4.364;2024-03-23T09:30:19;8.00;36.00
23079;DHT22;11707;50.830;4.364;2024-03-23T09:32:48;8.10;34.00
23079;DHT22;11707;50.830;4.364;2024-03-23T09:35:13;8.10;40.60
23079;DHT22;11707;50.830;4.364;2024-03-23T09:37:39;8.30;37.10
23079;DHT22;11707;50.830;4.364;2024-03-23T09:40:12;8.40;26.20
23079;DHT22;11707;50.830;4.364;2024-03-23T09:42:38;8.50;9.00
23079;DHT22;11707;50.830;4.364;2024-03-23T09:45:11;8.50;1.00
23079;DHT22;11707;50.830;4.364;2024-03-23T09:47:41;8.60;99.90
23079;DHT22;11707;50.830;4.364;2024-03-23T09:50:07;8.60;1.00
23079;DHT22;11707;50.830;4.364;2024-03-23T09:52:35;8.60;99.90
23079;DHT22;11707;50.830;4.364;2024-03-23T09:55:01;8.60;99.90
23079;DHT22;11707;50.830;4.364;2024-03-23T09:57:29;8.70;99.90
23079;DHT22;11707;50.830;4.364;2024-03-23T09:59:59;8.60;99.90
23079;DHT22;11707;50.830;4.364;2024-03-23T10:02:28;8.50;99.90
23079;DHT22;11707;50.830;4.364;2024-03-23T10:04:56;8.50;1.00
23079;DHT22;11707;50.830;4.364;2024-03-23T10:07:23;8.80;1.00
23079;DHT22;11707;50.830;4.364;2024-03-23T10:09:48;8.90;62.60
23079;DHT22;11707;50.830;4.364;2024-03-23T10:12:17;8.80;99.90
23079;DHT22;11707;50.830;4.364;2024-03-23T10:14:43;8.80;1.00
23079;DHT22;11707;50.830;4.364;2024-03-23T10:17:22;8.80;1.00
23079;DHT22;11707;50.830;4.364;2024-03-23T10:19:52;8.80;99.90
23079;DHT22;11707;50.830;4.364;2024-03-23T10:24:47;8.70;1.00
23079;DHT22;11707;50.830;4.364;2024-03-23T10:27:17;8.80;1.00
23079;DHT22;11707;50.830;4.364;2024-03-23T10:29:45;9.00;1.00
23079;DHT22;11707;50.830;4.364;2024-03-23T10:32:11;9.20;1.00
23079;DHT22;11707;50.830;4.364;2024-03-23T10:34:38;9.10;1.00
23079;DHT22;11707;50.830;4.364;2024-03-23T10:37:05;9.00;1.00
23079;DHT22;11707;50.830;4.364;2024-03-23T10:39:36;9.00;99.90
23079;DHT22;11707;50.830;4.364;2024-03-23T10:42:03;9.10;99.90
23079;DHT22;11707;50.830;4.364;2024-03-23T10:44:35;9.20;99.90
23079;DHT22;11707;50.830;4.364;2024-03-23T10:47:02;9.20;99.90
23079;DHT22;11707;50.830;4.364;2024-03-23T10:49:35;9.30;99.90
23079;DHT22;11707;50.830;4.364;2024-03-23T10:52:02;9.20;43.90
23079;DHT22;11707;50.830;4.364;2024-03-23T10:54:31;9.20;1.00
23079;DHT22;11707;50.830;4.364;2024-03-23T10:57:08;9.30;99.90
23079;DHT22;11707;50.830;4.364;2024-03-23T10:59:37;9.30;1.00
23079;DHT22;11707;50.830;4.364;2024-03-23T11:02:03;9.10;1.00
23079;DHT22;11707;50.830;4.364;2024-03-23T11:04:36;9.20;99.90
23079;DHT22;11707;50.830;4.364;2024-03-23T11:07:31;9.30;57.70
23079;DHT22;11707;50.830;4.364;2024-03-23T11:09:57;9.30;99.90
23079;DHT22;11707;50.830;4.364;2024-03-23T11:12:30;9.50;99.90
23079;DHT22;11707;50.830;4.364;2024-03-23T11:15:04;9.50;99.90
23079;DHT22;11707;50.830;4.364;2024-03-23T11:17:32;9.50;99.90
23079;DHT22;11707;50.830;4.364;2024-03-23T11:19:58;9.70;99.90
23079;DHT22;11707;50.830;4.364;2024-03-23T11:22:46;9.80;99.90
23079;DHT22;11707;50.830;4.364;2024-03-23T11:25:13;9.50;1.00
23079;DHT22;11707;50.830;4.364;2024-03-23T11:27:39;9.30;91.10
23079;DHT22;11707;50.830;4.364;2024-03-23T11:30:24;9.40;99.90
23079;DHT22;11707;50.830;4.364;2024-03-23T11:32:53;9.30;98.50
23079;DHT22;11707;50.830;4.364;2024-03-23T11:35:38;9.30;99.90
23079;DHT22;11707;50.830;4.364;2024-03-23T11:40:32;9.50;99.90
23079;DHT22;11707;50.830;4.364;2024-03-23T11:43:00;9.40;99.90
23079;DHT22;11707;50.830;4.364;2024-03-23T11:45:31;9.50;99.90
23079;DHT22;11707;50.830;4.364;2024-03-23T11:48:06;9.50;99.90
23079;DHT22;11707;50.830;4.364;2024-03-23T11:50:32;9.30;99.90
23079;DHT22;11707;50.830;4.364;2024-03-23T11:53:18;9.30;99.90
23079;DHT22;11707;50.830;4.364;2024-03-23T11:55:50;9.20;1.00
23079;DHT22;11707;50.830;4.364;2024-03-23T11:58:21;9.10;1.00
23079;DHT22;11707;50.830;4.364;2024-03-23T12:01:01;9.00;99.90
23079;DHT22;11707;50.830;4.364;2024-03-23T12:03:31;9.00;99.90
23079;DHT22;11707;50.830;4.364;2024-03-23T12:06:00;9.10;99.90
23079;DHT22;11707;50.830;4.364;2024-03-23T12:08:34;9.20;1.00
23079;DHT22;11707;50.830;4.364;2024-03-23T12:11:14;9.20;99.90
23079;DHT22;11707;50.830;4.364;2024-03-23T12:13:41;9.40;99.90
23079;DHT22;11707;50.830;4.364;2024-03-23T12:18:42;9.40;99.90
23079;DHT22;11707;50.830;4.364;2024-03-23T12:21:09;9.40;99.90
23079;DHT22;11707;50.830;4.364;2024-03-23T12:23:35;9.20;1.00
23079;DHT22;11707;50.830;4.364;2024-03-23T12:26:01;9.10;99.90
23079;DHT22;11707;50.830;4.364;2024-03-23T12:28:27;8.80;99.90
23079;DHT22;11707;50.830;4.364;2024-03-23T12:30:53;8.70;99.90
23079;DHT22;11707;50.830;4.364;2024-03-23T12:33:22;8.70;99.90
23079;DHT22;11707;50.830;4.364;2024-03-23T12:35:49;8.60;99.90
23079;DHT22;11707;50.830;4.364;2024-03-23T12:38:15;8.60;99.90
23079;DHT22;11707;50.830;4.364;2024-03-23T12:40:41;8.80;1.00
23079;DHT22;11707;50.830;4.364;2024-03-23T12:43:07;9.00;99.90
23079;DHT22;11707;50.830;4.364;2024-03-23T12:45:35;9.30;1.00
23079;DHT22;11707;50.830;4.364;2024-03-23T12:48:01;9.50;1.00
23079;DHT22;11707;50.830;4.364;2024-03-23T12:50:27;9.80;99.90
23079;DHT22;11707;50.830;4.364;2024-03-23T12:52:53;10.00;1.00
23079;DHT22;11707;50.830;4.364;2024-03-23T12:55:19;10.30;99.90
23079;DHT22;11707;50.830;4.364;2024-03-23T12:57:46;10.50;99.90
23079;DHT22;11707;50.830;4.364;2024-03-23T13:00:12;10.40;99.90
23079;DHT22;11707;50.830;4.364;2024-03-23T13:02:38;10.50;99.90
23079;DHT22;11707;50.830;4.364;2024-03-23T13:05:05;10.40;1.00
23079;DHT22;11707;50.830;4.364;2024-03-23T13:07:31;10.30;1.00
23079;DHT22;11707;50.830;4.364;2024-03-23T13:09:56;10.30;99.90
23079;DHT22;11707;50.830;4.364;2024-03-23T13:12:24;10.30;99.90
23079;DHT22;11707;50.830;4.364;2024-03-23T13:14:50;10.30;99.90
23079;DHT22;11707;50.830;4.364;2024-03-23T13:17:16;10.40;99.90
23079;DHT22;11707;50.830;4.364;2024-03-23T13:19:41;10.30;99.90
23079;DHT22;11707;50.830;4.364;2024-03-23T13:22:07;10.20;99.90
23079;DHT22;11707;50.830;4.364;2024-03-23T13:24:33;10.10;99.90
23079;DHT22;11707;50.830;4.364;2024-03-23T13:26:59;10.10;99.90
23079;DHT22;11707;50.830;4.364;2024-03-23T13:29:25;10.20;99.90
23079;DHT22;11707;50.830;4.364;2024-03-23T13:31:51;10.70;99.90
23079;DHT22;11707;50.830;4.364;2024-03-23T13:34:17;11.30;99.90
23079;DHT22;11707;50.830;4.364;2024-03-23T13:36:47;11.40;99.90
23079;DHT22;11707;50.830;4.364;2024-03-23T13:39:13;11.40;99.90
23079;DHT22;11707;50.830;4.364;2024-03-23T13:41:40;11.70;99.90
23079;DHT22;11707;50.830;4.364;2024-03-23T13:44:13;11.50;99.90
23079;DHT22;11707;50.830;4.364;2024-03-23T13:46:40;12.00;99.90
23079;DHT22;11707;50.830;4.364;2024-03-23T13:49:28;12.50;99.90
23079;DHT22;11707;50.830;4.364;2024-03-23T13:51:55;12.30;99.90
23079;DHT22;11707;50.830;4.364;2024-03-23T13:54:22;11.70;99.90
23079;DHT22;11707;50.830;4.364;2024-03-23T13:56:53;11.40;99.90
23079;DHT22;11707;50.830;4.364;2024-03-23T13:59:19;11.40;99.90
23079;DHT22;11707;50.830;4.364;2024-03-23T14:01:49;11.40;99.90
23079;DHT22;11707;50.830;4.364;2024-03-23T14:04:16;11.00;99.90
23079;DHT22;11707;50.830;4.364;2024-03-23T14:06:46;10.90;99.90
23079;DHT22;11707;50.830;4.364;2024-03-23T14:09:12;10.80;99.90
23079;DHT22;11707;50.830;4.364;2024-03-23T14:11:38;10.90;1.00
23079;DHT22;11707;50.830;4.364;2024-03-23T14:14:04;10.70;99.90
23079;DHT22;11707;50.830;4.364;2024-03-23T14:16:32;10.60;99.90
23079;DHT22;11707;50.830;4.364;2024-03-23T14:18:58;10.80;99.90
23079;DHT22;11707;50.830;4.364;2024-03-23T14:21:27;11.10;99.90
23079;DHT22;11707;50.830;4.364;2024-03-23T14:23:52;11.20;99.90
23079;DHT22;11707;50.830;4.364;2024-03-23T14:26:19;11.00;99.90
23079;DHT22;11707;50.830;4.364;2024-03-23T14:28:45;11.00;99.90
23079;DHT22;11707;50.830;4.364;2024-03-23T14:31:11;10.70;99.90
23079;DHT22;11707;50.830;4.364;2024-03-23T14:33:37;10.60;99.90
23079;DHT22;11707;50.830;4.364;2024-03-23T14:36:04;10.70;99.90
23079;DHT22;11707;50.830;4.364;2024-03-23T14:38:30;11.00;99.90
23079;DHT22;11707;50.830;4.364;2024-03-23T14:41:00;11.40;99.90
23079;DHT22;11707;50.830;4.364;2024-03-23T14:43:26;11.40;99.90
23079;DHT22;11707;50.830;4.364;2024-03-23T14:46:13;11.10;99.90
23079;DHT22;11707;50.830;4.364;2024-03-23T14:48:40;11.10;99.90
23079;DHT22;11707;50.830;4.364;2024-03-23T14:51:10;11.10;99.90
23079;DHT22;11707;50.830;4.364;2024-03-23T14:53:37;11.20;99.90
23079;DHT22;11707;50.830;4.364;2024-03-23T14:56:06;11.20;99.90
23079;DHT22;11707;50.830;4.364;2024-03-23T14:58:32;11.20;99.90
23079;DHT22;11707;50.830;4.364;2024-03-23T15:01:06;11.50;99.90
23079;DHT22;11707;50.830;4.364;2024-03-23T15:03:38;11.50;99.90
23079;DHT22;11707;50.830;4.364;2024-03-23T15:06:08;11.40;99.90
23079;DHT22;11707;50.830;4.364;2024-03-23T15:08:37;11.40;99.90
23079;DHT22;11707;50.830;4.364;2024-03-23T15:11:03;11.30;99.90
23079;DHT22;11707;50.830;4.364;2024-03-23T15:13:33;11.00;99.90
23079;DHT22;11707;50.830;4.364;2024-03-23T15:15:59;10.70;99.90
23079;DHT22;11707;50.830;4.364;2024-03-23T15:18:24;11.00;1.00
23079;DHT22;11707;50.830;4.364;2024-03-23T15:20:58;11.40;1.00
23079;DHT22;11707;50.830;4.364;2024-03-23T15:23:31;11.70;99.90
23079;DHT22;11707;50.830;4.364;2024-03-23T15:26:05;12.00;99.90
23079;DHT22;11707;50.830;4.364;2024-03-23T15:28:33;12.20;99.90
23079;DHT22;11707;50.830;4.364;2024-03-23T15:31:20;12.20;99.90
23079;DHT22;11707;50.830;4.364;2024-03-23T15:33:46;12.20;99.90
23079;DHT22;11707;50.830;4.364;2024-03-23T15:36:11;11.90;99.90
23079;DHT22;11707;50.830;4.364;2024-03-23T15:38:37;11.50;99.90
23079;DHT22;11707;50.830;4.364;2024-03-23T15:41:04;11.20;99.90
23079;DHT22;11707;50.830;4.364;2024-03-23T15:43:30;11.10;99.90
23079;DHT22;11707;50.830;4.364;2024-03-23T15:46:03;10.90;99.90
23079;DHT22;11707;50.830;4.364;2024-03-23T15:48:30;10.80;99.90
23079;DHT22;11707;50.830;4.364;2024-03-23T15:51:03;10.70;99.90
23079;DHT22;11707;50.830;4.364;2024-03-23T15:53:32;10.50;1.00
23079;DHT22;11707;50.830;4.364;2024-03-23T15:56:01;10.40;1.00
23079;DHT22;11707;50.830;4.364;2024-03-23T15:58:28;10.40;1.20
23079;DHT22;11707;50.830;4.364;2024-03-23T16:00:57;10.50;1.00
23079;DHT22;11707;50.830;4.364;2024-03-23T16:03:24;10.40;1.00
23079;DHT22;11707;50.830;4.364;2024-03-23T16:05:57;10.40;99.90
23079;DHT22;11707;50.830;4.364;2024-03-23T16:08:24;10.50;99.90
23079;DHT22;11707;50.830;4.364;2024-03-23T16:10:50;10.50;99.90
23079;DHT22;11707;50.830;4.364;2024-03-23T16:13:17;10.50;99.90
23079;DHT22;11707;50.830;4.364;2024-03-23T16:15:56;10.60;99.90
23079;DHT22;11707;50.830;4.364;2024-03-23T16:18:25;10.80;99.90
23079;DHT22;11707;50.830;4.364;2024-03-23T16:20:58;10.80;99.90
23079;DHT22;11707;50.830;4.364;2024-03-23T16:23:24;10.70;99.90
23079;DHT22;11707;50.830;4.364;2024-03-23T16:25:51;10.60;99.90
23079;DHT22;11707;50.830;4.364;2024-03-23T16:28:30;10.50;99.90
23079;DHT22;11707;50.830;4.364;2024-03-23T16:31:09;10.50;99.90
23079;DHT22;11707;50.830;4.364;2024-03-23T16:33:36;10.50;99.90
23079;DHT22;11707;50.830;4.364;2024-03-23T16:38:31;10.70;99.90
23079;DHT22;11707;50.830;4.364;2024-03-23T16:41:04;10.60;99.90
23079;DHT22;11707;50.830;4.364;2024-03-23T16:43:34;10.70;99.90
23079;DHT22;11707;50.830;4.364;2024-03-23T16:46:01;10.60;99.90
23079;DHT22;11707;50.830;4.364;2024-03-23T16:48:27;10.50;99.90
23079;DHT22;11707;50.830;4.364;2024-03-23T16:50:56;10.50;99.90
23079;DHT22;11707;50.830;4.364;2024-03-23T16:53:22;10.40;99.90
23079;DHT22;11707;50.830;4.364;2024-03-23T16:56:03;10.40;99.90